Time;durP1;ratioP1;P1;durP2;ratioP2;P2;SDS_P1;SDS_P2;PMS_P1;PMS_P2;Temp;Humidity;BMP_temperature;BMP_pressure;BME280_temperature;BME280_humidity;BME280_pressure;Samples;Min_cycle;Max_cycle;Signal;HPM_P1;HPM_P2
2020/12/17 00:00:17;;;;;;;10.73;7.68;;;;;;;8.14;91.94;101295.72;4989129;28;20027;-79
2020/12/17 00:02:42;;;;;;;10.90;7.60;;;;;;;8.17;92.05;101295.84;4990850;28;20080;-78
2020/12/17 00:05:08;;;;;;;12.57;7.80;;;;;;;8.10;92.35;101299.81;4985548;28;20097;-78
2020/12/17 00:07:33;;;;;;;16.08;8.00;;;;;;;8.14;92.34;101306.84;4983196;28;20450;-78
2020/12/17 00:09:58;;;;;;;11.50;8.45;;;;;;;8.07;92.46;101294.59;4990253;28;20034;-78
2020/12/17 00:12:23;;;;;;;12.67;7.97;;;;;;;8.06;92.57;101292.84;4991279;28;20058;-79
2020/12/17 00:14:49;;;;;;;13.68;7.75;;;;;;;8.19;92.44;101296.78;4981428;28;20026;-80
2020/12/17 00:17:14;;;;;;;11.65;7.28;;;;;;;8.18;92.36;101300.16;4985482;28;20031;-79
2020/12/17 00:19:40;;;;;;;12.87;7.97;;;;;;;8.15;92.34;101298.34;4984632;28;20385;-78
2020/12/17 00:22:05;;;;;;;11.57;8.00;;;;;;;8.17;91.77;101306.97;4983198;28;20293;-78
2020/12/17 00:24:30;;;;;;;11.17;8.47;;;;;;;8.17;92.08;101303.53;4991702;28;20455;-78
2020/12/17 00:26:55;;;;;;;11.77;8.10;;;;;;;8.16;91.98;101299.22;4985907;28;20269;-79
2020/12/17 00:29:21;;;;;;;11.07;8.23;;;;;;;8.12;92.45;101299.06;4982201;28;20023;-79
2020/12/17 00:31:46;;;;;;;14.87;8.33;;;;;;;8.07;92.89;101294.59;4989151;28;20030;-78
2020/12/17 00:34:11;;;;;;;13.47;8.57;;;;;;;8.05;92.68;101299.63;4990049;28;20385;-79
2020/12/17 00:36:36;;;;;;;15.45;9.57;;;;;;;8.07;92.67;101286.91;4998931;28;20026;-78
2020/12/17 00:39:02;;;;;;;12.87;8.93;;;;;;;8.02;92.91;101291.84;4984136;28;20034;-78
2020/12/17 00:41:27;;;;;;;14.45;8.93;;;;;;;8.06;92.59;101287.72;4987481;28;20324;-79
2020/12/17 00:43:52;;;;;;;13.23;8.43;;;;;;;8.02;92.91;101291.84;4990449;28;20022;-79
2020/12/17 00:46:18;;;;;;;14.47;7.90;;;;;;;8.05;92.94;101291.09;4988981;28;20030;-80
2020/12/17 00:48:43;;;;;;;13.00;8.37;;;;;;;8.17;91.68;101290.72;4988998;28;20277;-80
2020/12/17 00:51:09;;;;;;;13.68;8.43;;;;;;;8.18;92.01;101283.13;4982658;28;20042;-79
2020/12/17 00:53:34;;;;;;;12.00;8.75;;;;;;;8.15;92.26;101287.25;4982596;28;20027;-79
2020/12/17 00:56:00;;;;;;;12.00;7.78;;;;;;;8.22;92.08;101286.66;4989145;28;20108;-78
2020/12/17 00:58:25;;;;;;;12.82;9.10;;;;;;;8.16;92.40;101289.00;4986288;28;20026;-79
2020/12/17 01:00:51;;;;;;;13.65;8.65;;;;;;;8.11;92.56;101287.09;4986623;28;20079;-80
2020/12/17 01:03:16;;;;;;;12.95;8.63;;;;;;;8.15;92.95;101294.91;4984969;28;20027;-79
2020/12/17 01:05:41;;;;;;;12.20;8.17;;;;;;;8.10;92.94;101287.91;4986061;28;20022;-80
2020/12/17 01:08:07;;;;;;;10.98;7.25;;;;;;;8.07;93.24;101285.22;4986989;28;20331;-79
2020/12/17 01:10:33;;;;;;;11.57;7.60;;;;;;;8.08;93.31;101288.66;4988370;28;20045;-78
2020/12/17 01:12:58;;;;;;;14.35;8.10;;;;;;;8.05;93.36;101286.84;4986466;28;20034;-79
2020/12/17 01:15:24;;;;;;;10.18;7.75;;;;;;;8.06;93.15;101287.72;4991353;28;20095;-77
2020/12/17 01:17:51;;;;;;;10.23;7.07;;;;;;;8.06;93.38;101287.72;4999179;28;20042;-80
2020/12/17 01:20:16;;;;;;;12.68;8.60;;;;;;;8.06;93.71;101288.59;4982141;28;20018;-79
2020/12/17 01:22:42;;;;;;;13.30;7.95;;;;;;;8.05;93.57;101291.97;4989556;28;20027;-79
2020/12/17 01:25:07;;;;;;;10.35;7.55;;;;;;;8.12;93.34;101288.84;4992082;28;20034;-78
2020/12/17 01:27:32;;;;;;;11.18;7.18;;;;;;;8.22;92.92;101291.78;4995884;28;20022;-78
2020/12/17 01:29:58;;;;;;;10.27;7.25;;;;;;;8.16;93.25;101289.88;4986716;28;20027;-78
2020/12/17 01:32:24;;;;;;;11.00;7.68;;;;;;;8.24;92.97;101288.47;4987212;28;20078;-80
2020/12/17 01:34:50;;;;;;;12.60;7.70;;;;;;;8.19;92.80;101289.97;5003591;28;20035;-78
2020/12/17 01:37:15;;;;;;;11.43;7.72;;;;;;;8.16;92.93;101294.09;4982313;28;20023;-78
2020/12/17 01:39:40;;;;;;;10.55;7.50;;;;;;;8.11;93.25;101301.56;4988557;28;20111;-80
2020/12/17 01:42:06;;;;;;;12.00;7.85;;;;;;;8.14;93.29;101294.03;4987128;28;20019;-79
2020/12/17 01:44:31;;;;;;;10.05;8.02;;;;;;;8.14;93.44;101294.03;4984672;28;20019;-79
2020/12/17 01:46:56;;;;;;;11.40;8.13;;;;;;;8.14;93.25;101295.72;4989263;28;20034;-76
2020/12/17 01:49:24;;;;;;;12.47;8.23;;;;;;;8.19;93.54;101294.22;4982720;28;20022;-76
2020/12/17 01:51:50;;;;;;;10.37;7.60;;;;;;;8.19;93.00;101289.97;4977696;28;20846;-77
2020/12/17 01:54:16;;;;;;;;;;;;;;;8.22;92.96;101289.22;4972118;28;20033;-76
2020/12/17 01:56:46;;;;;;;12.10;7.60;;;;;;;8.17;92.90;101294.16;4989110;28;19920;-77
2020/12/17 01:59:11;;;;;;;11.97;7.63;;;;;;;8.14;93.34;101293.19;4974059;28;20114;-76
2020/12/17 02:01:42;;;;;;;11.87;7.97;;;;;;;8.08;93.58;101299.75;4978896;28;20094;-76
2020/12/17 02:04:08;;;;;;;12.70;8.25;;;;;;;8.07;93.65;101299.69;4971681;28;20030;-77
2020/12/17 02:06:35;;;;;;;12.75;8.50;;;;;;;8.05;93.89;101291.97;4984229;28;20110;-77
2020/12/17 02:09:00;;;;;;;11.50;7.60;;;;;;;8.06;93.97;101290.28;4981179;28;20026;-78
2020/12/17 02:11:25;;;;;;;13.37;8.73;;;;;;;8.11;93.95;101292.22;4977698;28;20049;-78
2020/12/17 02:13:51;;;;;;;13.50;7.97;;;;;;;8.14;93.79;101291.50;4981685;28;20313;-77
2020/12/17 02:16:16;;;;;;;12.10;8.13;;;;;;;8.08;94.15;101292.09;4985218;28;20274;-79
2020/12/17 02:18:43;;;;;;;15.45;8.80;;;;;;;8.10;94.13;101290.47;4983040;28;20023;-77
2020/12/17 02:21:08;;;;;;;14.27;7.95;;;;;;;8.22;93.83;101291.78;4989051;28;20033;-78
2020/12/17 02:23:34;;;;;;;10.68;7.65;;;;;;;8.12;93.82;101293.09;4986994;28;20418;-78
2020/12/17 02:28:27;;;;;;;13.83;8.50;;;;;;;8.15;93.77;101292.38;4926810;29;20472;-77
2020/12/17 02:30:53;;;;;;;16.77;9.23;;;;;;;8.11;94.18;101292.22;4946900;28;20035;-76
2020/12/17 02:33:18;;;;;;;16.80;8.45;;;;;;;8.10;94.12;101294.72;4948969;28;20016;-78
2020/12/17 02:35:44;;;;;;;13.23;8.68;;;;;;;8.08;94.17;101297.19;4939971;28;20086;-79
2020/12/17 02:38:09;;;;;;;12.15;8.63;;;;;;;8.02;94.49;101291.84;4956548;28;20053;-77
2020/12/17 02:40:35;;;;;;;15.35;9.77;;;;;;;8.20;93.93;101285.75;4961941;28;20027;-77
2020/12/17 02:43:00;;;;;;;12.82;8.23;;;;;;;8.10;94.20;101285.34;4960146;28;20031;-77
2020/12/17 02:45:26;;;;;;;14.65;8.95;;;;;;;8.19;94.29;101294.22;4960426;28;20554;-78
2020/12/17 02:47:51;;;;;;;12.80;7.95;;;;;;;8.23;94.21;101288.41;4955049;28;20041;-75
2020/12/17 02:50:17;;;;;;;13.82;9.23;;;;;;;8.16;94.50;101296.66;4960349;28;20031;-78
2020/12/17 02:52:42;;;;;;;18.48;9.93;;;;;;;8.12;94.51;101305.88;4961169;28;20023;-77
2020/12/17 02:55:09;;;;;;;15.07;9.88;;;;;;;8.09;94.67;101304.06;4959776;28;20038;-77
2020/12/17 02:57:34;;;;;;;17.90;10.07;;;;;;;8.00;94.91;101296.03;4962034;28;20037;-76
2020/12/17 03:00:00;;;;;;;16.65;9.73;;;;;;;8.05;95.25;101297.09;4962911;28;20031;-77
2020/12/17 03:02:26;;;;;;;15.23;10.67;;;;;;;8.00;95.20;101295.16;4957654;28;20050;-77
2020/12/17 03:04:52;;;;;;;19.05;10.38;;;;;;;8.06;95.49;101292.84;4954358;28;20070;-77
2020/12/17 03:07:17;;;;;;;16.05;10.57;;;;;;;8.06;95.59;101300.50;4958922;28;20388;-77
2020/12/17 03:09:42;;;;;;;19.95;10.93;;;;;;;8.01;95.39;101300.31;4958311;28;20480;-77
2020/12/17 03:12:07;;;;;;;14.75;11.20;;;;;;;7.97;95.59;101306.13;4962743;28;20412;-76
2020/12/17 03:14:33;;;;;;;15.35;10.05;;;;;;;8.01;95.47;101302.88;4960344;28;20023;-77
2020/12/17 03:16:58;;;;;;;17.73;10.23;;;;;;;8.09;95.65;101304.06;4957258;28;20034;-79
2020/12/17 03:19:23;;;;;;;17.83;10.43;;;;;;;8.02;95.60;101302.06;4958911;28;20062;-77
2020/12/17 03:21:51;;;;;;;15.87;11.13;;;;;;;8.02;95.74;101307.19;4965454;28;20747;-80
2020/12/17 03:24:17;;;;;;;19.63;12.50;;;;;;;7.98;95.61;101300.19;4958609;28;20042;-80
2020/12/17 03:26:42;;;;;;;19.85;12.75;;;;;;;8.04;95.88;101300.44;4963725;28;20035;-77
2020/12/17 03:29:07;;;;;;;20.50;12.17;;;;;;;7.95;95.74;101305.19;4954352;28;20027;-78
2020/12/17 03:31:33;;;;;;;18.93;12.73;;;;;;;7.95;95.84;101305.19;4954400;28;20033;-77
2020/12/17 03:33:58;;;;;;;21.43;13.97;;;;;;;7.96;96.00;101311.19;4955118;28;20877;-77
2020/12/17 03:36:23;;;;;;;21.90;13.33;;;;;;;7.93;95.92;101311.94;4959805;28;20368;-77
2020/12/17 03:38:48;;;;;;;22.33;15.10;;;;;;;7.91;96.21;101313.56;4959997;28;20054;-77
2020/12/17 03:41:14;;;;;;;24.10;14.87;;;;;;;7.90;96.28;101313.50;4965697;28;20271;-77
2020/12/17 03:43:39;;;;;;;26.40;14.65;;;;;;;8.02;96.52;101322.53;4962099;28;20397;-78
2020/12/17 03:46:04;;;;;;;21.77;14.60;;;;;;;7.98;96.17;101325.78;4960007;28;20109;-81
2020/12/17 03:48:29;;;;;;;21.97;14.63;;;;;;;7.95;96.15;101332.47;4965275;28;20035;-78
2020/12/17 03:50:55;;;;;;;24.43;14.93;;;;;;;7.95;96.35;101330.78;4962341;28;20332;-80
2020/12/17 03:53:20;;;;;;;23.30;16.50;;;;;;;7.99;96.26;101337.75;4964114;28;20294;-82
2020/12/17 03:55:45;;;;;;;26.57;16.20;;;;;;;8.03;96.07;101349.88;4962873;28;20462;-78
2020/12/17 03:58:11;;;;;;;29.05;17.17;;;;;;;7.98;96.45;101343.69;4958720;28;20028;-77
2020/12/17 04:00:36;;;;;;;26.65;16.83;;;;;;;8.01;96.19;101337.84;4962556;28;20033;-78
2020/12/17 04:03:01;;;;;;;23.70;15.27;;;;;;;8.02;96.09;101337.88;4962437;28;20031;-79
2020/12/17 04:05:27;;;;;;;22.93;15.53;;;;;;;7.97;95.98;101343.63;4953715;28;20279;-79
2020/12/17 04:07:52;;;;;;;23.73;16.25;;;;;;;7.97;96.06;101348.75;4963258;28;20399;-79
2020/12/17 04:10:17;;;;;;;22.37;14.80;;;;;;;8.02;96.04;101343.00;4963086;28;20062;-79
2020/12/17 04:12:43;;;;;;;25.65;17.00;;;;;;;7.96;95.80;101347.00;4958220;28;20476;-78
2020/12/17 04:15:08;;;;;;;25.27;17.25;;;;;;;8.01;96.11;101350.63;4965570;28;20031;-80
2020/12/17 04:17:33;;;;;;;23.37;16.67;;;;;;;8.02;96.10;101337.88;4957938;28;20030;-79
2020/12/17 04:19:58;;;;;;;23.37;15.57;;;;;;;7.98;95.80;101335.16;4964887;28;20289;-79
2020/12/17 04:22:24;;;;;;;26.60;16.60;;;;;;;8.01;96.00;101336.16;4963502;28;20282;-82
2020/12/17 04:24:49;;;;;;;26.63;18.13;;;;;;;7.95;96.04;101343.56;4955450;28;20019;-77
2020/12/17 04:27:14;;;;;;;26.47;17.57;;;;;;;7.93;96.07;101334.09;4958372;28;20266;-77
2020/12/17 04:29:40;;;;;;;24.45;17.70;;;;;;;7.95;95.93;101335.91;4960085;28;20360;-78
2020/12/17 04:32:05;;;;;;;27.08;18.40;;;;;;;7.91;96.27;101344.25;4966666;28;20491;-78
2020/12/17 04:34:31;;;;;;;31.25;18.30;;;;;;;7.93;96.03;101337.50;4961446;28;20026;-78
2020/12/17 04:36:56;;;;;;;24.55;18.58;;;;;;;8.00;96.09;101344.63;4966143;28;20035;-78
2020/12/17 04:39:22;;;;;;;26.63;18.10;;;;;;;7.96;95.97;101340.19;4962011;28;20043;-80
2020/12/17 04:41:47;;;;;;;30.33;20.07;;;;;;;7.92;96.13;101350.25;4953926;28;20088;-78
2020/12/17 04:44:15;;;;;;;31.27;19.83;;;;;;;7.98;96.02;101355.63;4959130;28;20349;-78
2020/12/17 04:46:43;;;;;;;28.07;19.93;;;;;;;7.95;96.14;101356.34;4962442;28;20027;-80
2020/12/17 04:49:12;;;;;;;27.27;19.13;;;;;;;7.91;96.01;101359.59;4959874;28;20556;-81
2020/12/17 04:51:41;;;;;;;29.73;20.40;;;;;;;7.86;96.18;101361.09;4963347;28;20464;-78
2020/12/17 04:54:09;;;;;;;28.90;19.00;;;;;;;7.85;96.33;101366.16;4955563;28;20112;-78
2020/12/17 04:56:37;;;;;;;31.73;20.17;;;;;;;7.92;96.35;101365.59;4959433;28;20043;-79
2020/12/17 04:59:04;;;;;;;28.23;19.67;;;;;;;7.86;96.24;101366.22;4966317;28;20026;-80
2020/12/17 05:01:32;;;;;;;32.38;20.20;;;;;;;7.97;96.42;101372.66;4958253;28;20681;-77
2020/12/17 05:03:57;;;;;;;30.63;19.73;;;;;;;7.88;95.92;101377.38;4958230;28;20039;-78
2020/12/17 05:06:24;;;;;;;30.63;20.60;;;;;;;7.84;96.10;101388.28;4960456;28;20110;-78
2020/12/17 05:08:50;;;;;;;32.03;20.57;;;;;;;7.86;96.24;101386.66;4961986;28;20035;-78
2020/12/17 05:11:15;;;;;;;27.27;19.00;;;;;;;7.84;96.00;101389.97;4958755;28;20035;-77
2020/12/17 05:13:40;;;;;;;32.60;20.10;;;;;;;7.87;95.87;101390.09;4960431;28;20046;-78
2020/12/17 05:16:06;;;;;;;29.92;21.10;;;;;;;7.81;95.89;101398.38;4958697;28;20031;-78
2020/12/17 05:18:31;;;;;;;29.02;19.45;;;;;;;7.77;95.94;101404.16;4954600;28;20030;-77
2020/12/17 05:20:57;;;;;;;30.73;20.00;;;;;;;7.74;96.13;101404.91;4950082;28;20921;-77
2020/12/17 05:23:24;;;;;;;29.17;19.17;;;;;;;7.78;95.88;101398.22;4960635;28;20031;-77
2020/12/17 05:25:52;;;;;;;30.30;19.37;;;;;;;7.79;95.76;101397.41;4960708;28;20113;-78
2020/12/17 05:28:18;;;;;;;26.73;18.03;;;;;;;7.75;95.83;101406.66;4958957;28;20026;-79
2020/12/17 05:30:44;;;;;;;25.05;17.25;;;;;;;7.70;95.88;101415.81;4949972;28;20050;-79
2020/12/17 05:33:09;;;;;;;26.63;16.23;;;;;;;7.75;95.77;101411.75;4960668;28;20038;-77
2020/12/17 05:35:37;;;;;;;28.65;18.38;;;;;;;7.65;95.72;101419.84;4952788;28;20035;-77
2020/12/17 05:38:05;;;;;;;21.57;15.67;;;;;;;7.71;95.93;101426.91;4958081;28;20512;-78
2020/12/17 05:40:41;;;;;;;23.57;15.43;;;;;;;7.71;95.81;101432.03;4964279;28;20054;-79
2020/12/17 05:43:07;;;;;;;24.02;16.40;;;;;;;7.65;95.83;101432.63;4965578;28;20035;-78
2020/12/17 05:45:34;;;;;;;24.60;15.95;;;;;;;7.63;95.79;101448.72;4963151;28;20035;-76
2020/12/17 05:48:18;;;;;;;22.73;14.37;;;;;;;7.67;95.82;101455.72;4960139;28;20480;-77
2020/12/17 05:51:17;;;;;;;24.03;14.93;;;;;;;7.62;95.78;101460.63;4962678;28;20023;-78
2020/12/17 05:53:43;;;;;;;20.83;13.80;;;;;;;7.69;95.40;101464.31;4963580;28;20034;-78
2020/12/17 05:56:08;;;;;;;23.35;12.73;;;;;;;7.67;95.32;101465.94;4951774;28;20084;-76
2020/12/17 05:58:38;;;;;;;22.13;13.70;;;;;;;7.69;95.17;101464.31;4950914;28;20027;-78
2020/12/17 06:01:12;;;;;;;22.97;14.60;;;;;;;7.65;95.06;101460.75;4959711;28;20959;-76
2020/12/17 06:03:37;;;;;;;23.47;15.30;;;;;;;7.59;95.36;101469.84;4952030;28;20047;-77
2020/12/17 06:06:05;;;;;;;24.75;14.70;;;;;;;7.72;95.52;101469.56;4952898;28;20115;-77
2020/12/17 06:08:35;;;;;;;23.57;15.80;;;;;;;7.71;95.37;101475.50;4954056;28;20030;-76
2020/12/17 06:11:06;;;;;;;24.43;16.17;;;;;;;7.61;95.23;101471.66;4956430;28;20027;-76
2020/12/17 06:13:39;;;;;;;30.83;18.73;;;;;;;7.61;95.30;101475.88;4959218;28;20080;-77
2020/12/17 06:16:06;;;;;;;33.37;19.67;;;;;;;7.58;95.59;101476.63;4962728;28;20510;-78
2020/12/17 06:18:37;;;;;;;29.23;19.10;;;;;;;7.64;95.59;101476.03;4956185;28;20114;-77
2020/12/17 06:21:07;;;;;;;30.40;19.50;;;;;;;7.59;95.63;101477.50;4947693;28;20077;-78
2020/12/17 06:23:32;;;;;;;31.23;21.00;;;;;;;7.58;95.79;101480.88;4962790;28;20031;-76
2020/12/17 06:25:58;;;;;;;33.30;19.67;;;;;;;7.58;95.72;101486.84;4961345;28;20106;-77
2020/12/17 06:28:47;;;;;;;32.90;20.25;;;;;;;7.60;95.60;101484.38;4952626;28;20046;-78
2020/12/17 06:31:26;;;;;;;31.40;19.80;;;;;;;7.54;95.69;101486.66;4952958;28;20118;-77
2020/12/17 06:34:03;;;;;;;33.10;21.07;;;;;;;7.49;95.82;101492.44;4948956;28;20466;-78
2020/12/17 06:36:37;;;;;;;32.40;21.43;;;;;;;7.55;95.87;101496.06;4949829;28;20039;-77
2020/12/17 06:39:07;;;;;;;31.87;20.87;;;;;;;7.57;95.95;101505.56;4954432;28;20137;-80
2020/12/17 06:41:33;;;;;;;29.43;19.70;;;;;;;7.57;96.12;101499.56;4949674;28;20039;-79
2020/12/17 06:43:59;;;;;;;29.98;18.85;;;;;;;7.59;95.72;101490.28;4950323;28;20034;-77
2020/12/17 06:46:36;;;;;;;27.73;19.23;;;;;;;7.62;95.85;101495.53;4967122;28;20030;-77
2020/12/17 06:49:08;;;;;;;30.77;19.13;;;;;;;7.63;95.79;101492.19;4961553;28;20106;-77
2020/12/17 06:51:39;;;;;;;31.10;19.37;;;;;;;7.66;95.94;101505.09;4964595;28;20027;-76
2020/12/17 06:54:27;;;;;;;27.13;18.63;;;;;;;7.65;95.61;101511.03;4954969;28;20031;-77
2020/12/17 06:57:07;;;;;;;27.87;19.13;;;;;;;7.58;95.65;101507.31;4963441;28;20055;-77
2020/12/17 06:59:33;;;;;;;29.73;19.20;;;;;;;7.58;95.86;101507.31;4963320;28;20500;-76
2020/12/17 07:01:58;;;;;;;25.60;18.35;;;;;;;7.64;95.93;101511.81;4956121;28;20027;-78
2020/12/17 07:04:46;;;;;;;27.40;19.05;;;;;;;7.67;95.75;101506.84;4965526;28;20030;-78
2020/12/17 07:07:15;;;;;;;25.90;18.27;;;;;;;7.67;95.55;101506.84;4960087;28;20113;-77
2020/12/17 07:09:41;;;;;;;33.20;20.00;;;;;;;7.71;95.64;101513.84;4958934;28;20050;-79
2020/12/17 07:12:09;;;;;;;33.67;20.50;;;;;;;7.69;95.91;101510.34;4952670;28;20481;-79
2020/12/17 07:14:34;;;;;;;36.60;21.43;;;;;;;7.64;95.74;101514.38;4955953;28;20069;-78
2020/12/17 07:17:05;;;;;;;34.47;21.52;;;;;;;7.67;96.03;101512.84;4961201;28;20034;-77
2020/12/17 07:19:42;;;;;;;34.83;20.20;;;;;;;7.82;95.67;101522.91;4962842;28;20109;-77
2020/12/17 07:22:11;;;;;;;;;;;;;;;7.72;95.73;101525.84;4954093;28;20031;-78
2020/12/17 07:24:41;;;;;;;37.70;21.37;;;;;;;7.82;95.66;101538.25;4966255;28;19914;-77
2020/12/17 07:27:18;;;;;;;29.03;20.20;;;;;;;7.88;95.55;101530.84;4960274;28;20037;-77
2020/12/17 07:29:52;;;;;;;32.05;20.05;;;;;;;7.81;95.60;101539.06;4952586;28;20088;-77
2020/12/17 07:32:30;;;;;;;34.60;20.83;;;;;;;7.79;95.37;101551.75;4955707;28;20027;-77
2020/12/17 07:35:08;;;;;;;34.33;21.33;;;;;;;7.77;95.66;101549.94;4957410;28;20444;-78
2020/12/17 07:37:53;;;;;;;32.20;21.83;;;;;;;7.83;95.71;101555.34;4950401;28;20027;-77
2020/12/17 07:40:36;;;;;;;31.97;19.80;;;;;;;7.81;95.31;101549.28;4962230;28;20026;-78
2020/12/17 07:43:13;;;;;;;29.93;19.50;;;;;;;7.86;95.19;101557.19;4951913;28;20031;-77
2020/12/17 07:45:52;;;;;;;36.17;20.60;;;;;;;7.84;95.45;101559.66;4956041;28;20061;-77
2020/12/17 07:48:47;;;;;;;32.17;20.80;;;;;;;7.85;95.39;101560.53;4958605;28;20377;-77
2020/12/17 07:51:13;;;;;;;33.93;21.67;;;;;;;7.84;95.45;101571.56;4950933;28;20076;-76
2020/12/17 07:53:39;;;;;;;32.30;21.67;;;;;;;7.81;95.18;101564.66;4959084;28;20038;-77
2020/12/17 07:56:06;;;;;;;38.37;21.93;;;;;;;7.78;95.50;101565.34;4950739;28;20036;-77
2020/12/17 07:58:31;;;;;;;31.73;21.73;;;;;;;7.82;95.15;101568.94;4965566;28;20031;-76
2020/12/17 08:00:57;;;;;;;33.83;22.00;;;;;;;7.76;95.17;101576.31;4958028;28;20408;-81
2020/12/17 08:03:23;;;;;;;29.48;20.25;;;;;;;7.75;95.29;101580.56;4959365;28;20024;-77
2020/12/17 08:05:50;;;;;;;30.40;19.85;;;;;;;7.77;95.12;101575.50;4948590;28;20027;-76
2020/12/17 08:08:16;;;;;;;32.07;18.00;;;;;;;7.79;94.91;101576.44;4962375;28;20030;-78
2020/12/17 08:10:43;;;;;;;27.80;17.57;;;;;;;7.84;94.90;101577.56;4959804;28;20110;-76
2020/12/17 08:13:09;;;;;;;27.20;17.27;;;;;;;7.81;94.62;101572.31;4946906;28;20102;-77
2020/12/17 08:15:35;;;;;;;34.47;18.45;;;;;;;7.78;94.60;101577.25;4963312;28;20114;-77
2020/12/17 08:18:02;;;;;;;24.92;15.68;;;;;;;7.84;94.46;101584.38;4966748;28;20026;-77
2020/12/17 08:20:28;;;;;;;24.00;15.57;;;;;;;7.83;94.34;101591.16;4966307;28;20030;-78
2020/12/17 08:22:54;;;;;;;22.87;16.10;;;;;;;7.77;94.33;101589.16;4960232;28;20023;-78
2020/12/17 08:25:20;;;;;;;26.97;15.63;;;;;;;7.67;94.76;101597.22;4968149;28;20027;-77
2020/12/17 08:27:46;;;;;;;28.17;16.27;;;;;;;7.70;94.66;101605.03;4955378;28;20995;-77
2020/12/17 08:30:14;;;;;;;22.92;13.77;;;;;;;7.69;94.40;101607.53;4968355;28;20030;-77
2020/12/17 08:32:48;;;;;;;26.10;14.77;;;;;;;7.76;94.25;101612.13;4955358;28;20035;-78
2020/12/17 08:35:18;;;;;;;23.87;14.10;;;;;;;7.83;94.37;101605.63;4968361;28;20081;-78
2020/12/17 08:37:43;;;;;;;23.53;14.20;;;;;;;7.82;94.16;101604.75;4962315;28;20031;-79
2020/12/17 08:40:10;;;;;;;25.30;12.60;;;;;;;7.87;94.13;101612.66;4963556;28;20026;-77
2020/12/17 08:42:37;;;;;;;21.90;12.23;;;;;;;8.04;93.89;101615.16;4963322;28;20282;-79
2020/12/17 08:45:13;;;;;;;20.93;12.37;;;;;;;8.10;93.87;101623.13;4959878;28;20062;-78
2020/12/17 08:47:41;;;;;;;21.98;12.38;;;;;;;8.21;93.20;101631.31;4960217;28;20568;-78
2020/12/17 08:50:08;;;;;;;20.17;11.50;;;;;;;8.33;93.26;101633.53;4960399;28;20030;-78
2020/12/17 08:52:33;;;;;;;23.73;10.20;;;;;;;8.45;92.54;101638.34;4962824;28;20030;-78
2020/12/17 08:55:08;;;;;;;17.20;10.07;;;;;;;8.43;92.31;101638.28;4962868;28;21453;-76
2020/12/17 08:57:33;;;;;;;19.73;10.67;;;;;;;8.43;92.49;101653.66;4961581;28;20074;-79
2020/12/17 08:59:59;;;;;;;17.08;9.80;;;;;;;8.51;92.25;101648.91;4962455;28;20062;-78
2020/12/17 09:02:29;;;;;;;18.27;8.98;;;;;;;8.49;91.43;101647.97;4962263;28;20028;-78
2020/12/17 09:04:59;;;;;;;18.73;9.10;;;;;;;8.52;91.55;101654.09;4960882;28;20033;-79
2020/12/17 09:07:29;;;;;;;16.67;9.57;;;;;;;8.46;91.41;101656.38;4961153;28;20027;-78
2020/12/17 09:10:10;;;;;;;16.40;8.77;;;;;;;8.46;91.46;101658.06;4958275;28;20118;-77
2020/12/17 09:12:35;;;;;;;16.97;8.83;;;;;;;8.47;91.10;101655.56;4957316;28;20046;-78
2020/12/17 09:15:09;;;;;;;20.65;8.95;;;;;;;8.43;91.16;101666.44;4959756;28;20023;-80
2020/12/17 09:17:35;;;;;;;15.80;8.63;;;;;;;8.42;90.98;101672.38;4956089;28;20032;-78
2020/12/17 09:20:00;;;;;;;17.92;8.40;;;;;;;8.56;90.84;101670.47;4962282;28;20113;-77
2020/12/17 09:22:34;;;;;;;19.00;6.93;;;;;;;8.47;90.61;101686.28;4963958;28;20028;-78
2020/12/17 09:25:00;;;;;;;12.97;7.90;;;;;;;8.50;90.83;101689.00;4963754;28;20018;-77
2020/12/17 09:27:33;;;;;;;17.20;7.80;;;;;;;8.59;90.62;101686.84;4953877;28;20057;-78
2020/12/17 09:30:17;;;;;;;17.60;8.10;;;;;;;8.57;90.49;101697.81;4955661;28;20147;-80
2020/12/17 09:33:17;;;;;;;16.13;7.97;;;;;;;8.55;90.61;101700.31;5113498;27;20380;-78
2020/12/17 09:35:42;;;;;;;;;;;;;;;8.64;90.70;101704.97;5122508;28;20032;-78
2020/12/17 09:38:12;;;;;;;14.90;7.78;;;;;;;8.87;90.02;101699.19;5118191;28;20285;-81
2020/12/17 09:40:40;;;;;;;15.10;7.23;;;;;;;8.84;89.08;101708.44;5115084;28;20068;-79
2020/12/17 09:43:10;;;;;;;22.05;7.72;;;;;;;8.80;89.45;101712.56;5118445;27;20031;-79
2020/12/17 09:45:36;;;;;;;16.00;6.73;;;;;;;8.70;88.83;101711.25;5113833;28;20377;-79
2020/12/17 09:48:23;;;;;;;17.87;6.87;;;;;;;8.74;89.18;101720.81;5122974;28;20027;-81
2020/12/17 09:50:57;;;;;;;12.48;6.13;;;;;;;8.83;89.34;101724.63;5120569;28;20079;-80
2020/12/17 09:53:23;;;;;;;15.13;5.90;;;;;;;8.76;88.85;101726.00;5123630;27;20057;-79
2020/12/17 09:55:48;;;;;;;;;;;;;;;8.81;88.66;101727.13;5125361;27;20041;-80
2020/12/17 09:58:14;;;;;;;12.80;6.10;;;;;;;8.84;88.75;101723.81;5124948;27;19911;-82
2020/12/17 10:00:39;;;;;;;13.10;6.20;;;;;;;8.97;88.71;101723.53;5124902;28;20020;-80
2020/12/17 10:03:04;;;;;;;16.40;5.57;;;;;;;9.02;88.11;101732.28;5124518;27;20389;-80
2020/12/17 10:05:30;;;;;;;15.18;6.18;;;;;;;9.09;87.77;101731.75;5120744;28;20313;-80
2020/12/17 10:07:55;;;;;;;11.27;5.20;;;;;;;9.21;86.65;101732.31;5118033;28;20012;-78
2020/12/17 10:10:20;;;;;;;13.97;5.70;;;;;;;9.42;87.38;101728.88;5127301;28;20850;-80
2020/12/17 10:12:45;;;;;;;12.38;5.40;;;;;;;9.92;85.17;101729.31;5122657;27;20020;-80
2020/12/17 10:15:11;;;;;;;13.50;4.73;;;;;;;10.17;82.42;101743.13;5124879;28;20042;-80
2020/12/17 10:17:36;;;;;;;10.38;4.65;;;;;;;10.29;82.85;101735.94;5117311;28;20280;-78
2020/12/17 10:20:07;;;;;;;10.43;4.83;;;;;;;10.79;80.49;101744.69;5118578;28;20026;-80
2020/12/17 10:22:32;;;;;;;10.98;4.15;;;;;;;11.02;79.70;101751.53;5123826;28;20295;-81
2020/12/17 10:24:57;;;;;;;9.35;4.03;;;;;;;10.49;81.32;101753.00;5121942;28;20027;-79
2020/12/17 10:27:23;;;;;;;9.80;3.83;;;;;;;10.74;81.37;101753.94;5126550;28;20054;-80
2020/12/17 10:29:48;;;;;;;14.20;4.67;;;;;;;10.44;82.65;101757.09;5129308;27;20167;-82
2020/12/17 10:32:14;;;;;;;8.88;4.53;;;;;;;10.46;83.08;101767.41;5122639;28;20026;-79
2020/12/17 10:34:40;;;;;;;17.05;4.50;;;;;;;10.68;81.56;101776.81;5120767;27;20034;-80
2020/12/17 10:37:06;;;;;;;11.77;4.40;;;;;;;10.23;82.37;101763.94;5130625;28;20439;-79
2020/12/17 10:39:32;;;;;;;13.73;4.63;;;;;;;10.42;82.92;101775.81;5123772;27;20030;-79
2020/12/17 10:41:57;;;;;;;12.60;4.20;;;;;;;10.17;83.49;101773.94;5122475;28;20015;-80
2020/12/17 10:44:22;;;;;;;19.03;5.20;;;;;;;10.35;83.44;101779.81;5103760;28;20775;-80
2020/12/17 10:46:50;;;;;;;17.73;5.18;;;;;;;10.40;83.91;101780.00;5105126;28;20019;-79
2020/12/17 10:49:16;;;;;;;18.60;5.50;;;;;;;10.09;84.89;101775.31;5104870;28;20051;-82
2020/12/17 10:51:42;;;;;;;17.35;5.90;;;;;;;9.97;84.98;101788.53;5108270;28;20401;-82
2020/12/17 10:54:07;;;;;;;12.40;4.43;;;;;;;10.11;84.98;101778.84;5100594;28;20035;-80
2020/12/17 10:56:33;;;;;;;15.67;4.93;;;;;;;10.46;84.05;101782.84;5110016;28;20027;-81
2020/12/17 10:58:58;;;;;;;11.13;4.30;;;;;;;10.76;82.35;101784.00;5108646;28;20277;-82
2020/12/17 11:01:23;;;;;;;13.73;4.18;;;;;;;10.72;81.22;101787.25;5111948;28;20030;-80
2020/12/17 11:03:52;;;;;;;14.70;5.13;;;;;;;10.25;82.99;101783.72;5103612;28;20501;-75
2020/12/17 11:06:19;;;;;;;14.55;5.13;;;;;;;10.12;83.85;101796.00;5108405;28;20031;-80
2020/12/17 11:08:44;;;;;;;12.30;4.28;;;;;;;10.03;84.80;101795.59;5109185;28;20020;-80
2020/12/17 11:11:11;;;;;;;14.00;4.07;;;;;;;9.82;85.47;101796.47;5106107;27;20031;-79
2020/12/17 11:13:36;;;;;;;13.27;4.35;;;;;;;9.93;85.22;101795.22;5111638;28;21715;-80
2020/12/17 11:16:01;;;;;;;16.30;4.68;;;;;;;9.96;86.02;101800.47;5109946;28;20049;-80
2020/12/17 11:18:26;;;;;;;10.52;3.45;;;;;;;10.33;85.18;101802.00;5110562;28;20035;-79
2020/12/17 11:20:52;;;;;;;15.88;3.97;;;;;;;10.60;83.86;101805.66;5106879;28;20074;-78
2020/12/17 11:23:17;;;;;;;15.63;3.50;;;;;;;10.51;83.32;101807.00;5111414;28;20035;-79
2020/12/17 11:25:42;;;;;;;10.63;3.70;;;;;;;10.32;82.78;101805.38;5110196;28;20352;-79